Time;durP1;ratioP1;P1;durP2;ratioP2;P2;SDS_P1;SDS_P2;PMS_P1;PMS_P2;Temp;Humidity;BMP_temperature;BMP_pressure;BME280_temperature;BME280_humidity;BME280_pressure;Samples;Min_cycle;Max_cycle;Signal;HPM_P1;HPM_P2
2023/08/20 00:01:53;;;;;;;26.60;24.10;;;;;;;21.26;82.32;99122.95;226739;1272;22534;-74
2023/08/20 00:06:55;;;;;;;26.50;23.90;;;;;;;21.21;82.43;99121.59;226746;1267;22532;-73
2023/08/20 00:11:57;;;;;;;27.80;25.10;;;;;;;21.17;82.73;99126.77;226720;1270;22528;-74
2023/08/20 00:16:59;;;;;;;28.40;25.70;;;;;;;21.13;82.57;99126.02;226706;1269;22526;-74
2023/08/20 00:22:01;;;;;;;28.00;25.10;;;;;;;21.08;82.76;99121.33;226715;1267;22534;-74
2023/08/20 00:27:03;;;;;;;28.00;24.90;;;;;;;21.05;82.94;99115.18;226710;1273;22531;-74
2023/08/20 00:32:05;;;;;;;28.00;25.30;;;;;;;21.02;83.09;99115.50;226905;1273;22888;-74
2023/08/20 00:37:08;;;;;;;28.30;25.60;;;;;;;20.98;83.34;99110.81;226866;1272;22682;-74
2023/08/20 00:42:10;;;;;;;27.30;24.50;;;;;;;20.95;83.51;99109.70;226837;1273;24206;-74
2023/08/20 00:47:13;;;;;;;27.80;24.90;;;;;;;20.90;83.74;99116.41;226865;1272;22524;-75
2023/08/20 00:52:17;;;;;;;29.00;26.00;;;;;;;20.85;83.74;99113.85;226692;1273;22535;-74
2023/08/20 00:57:22;;;;;;;28.20;25.40;;;;;;;20.81;84.15;99115.88;226788;1273;25287;-73
2023/08/20 01:02:24;;;;;;;29.20;26.20;;;;;;;20.78;84.22;99111.17;226734;1270;22533;-74
2023/08/20 01:07:38;;;;;;;28.40;25.70;;;;;;;20.74;84.15;99112.40;226713;1269;22624;-73
2023/08/20 01:12:41;;;;;;;27.60;25.10;;;;;;;20.70;84.27;99110.56;226746;1272;22533;-75
2023/08/20 01:17:45;;;;;;;27.70;25.10;;;;;;;20.64;84.33;99113.91;226706;1273;22543;-74
2023/08/20 01:23:09;;;;;;;28.00;25.20;;;;;;;20.59;84.46;99118.56;226669;1273;25380;-74
2023/08/20 01:28:19;;;;;;;27.90;24.90;;;;;;;20.54;84.75;99114.77;226810;1272;22528;-74
2023/08/20 01:33:21;;;;;;;30.10;27.00;;;;;;;20.48;84.78;99112.69;226737;1272;22540;-74
2023/08/20 01:38:25;;;;;;;30.60;27.50;;;;;;;20.42;84.86;99109.16;226613;1266;112662;-74
2023/08/20 01:43:27;;;;;;;30.80;27.60;;;;;;;20.37;85.06;99112.80;226726;1270;22520;-74
2023/08/20 01:48:29;;;;;;;31.50;28.40;;;;;;;20.32;85.11;99112.88;226813;1273;22527;-74
2023/08/20 01:53:31;;;;;;;32.90;29.40;;;;;;;20.28;85.08;99113.35;226753;1272;22546;-75
2023/08/20 01:58:36;;;;;;;33.60;30.30;;;;;;;20.24;85.21;99112.85;226769;1272;22527;-74
2023/08/20 02:03:38;;;;;;;35.10;31.00;;;;;;;20.19;85.39;99113.50;226915;1273;22523;-75
2023/08/20 02:08:40;;;;;;;34.10;30.50;;;;;;;20.15;85.56;99116.63;226752;1273;22523;-74
2023/08/20 02:13:42;;;;;;;31.70;28.50;;;;;;;20.11;85.49;99119.81;226793;1273;22999;-74
2023/08/20 02:18:44;;;;;;;28.90;25.80;;;;;;;20.07;85.61;99124.58;226820;1273;22524;-74
2023/08/20 02:23:46;;;;;;;25.80;23.40;;;;;;;20.03;85.71;99125.04;226711;1271;22548;-74
2023/08/20 02:28:48;;;;;;;25.90;23.50;;;;;;;19.99;85.86;99127.22;226813;1269;24291;-74
2023/08/20 02:33:50;;;;;;;25.90;23.30;;;;;;;19.94;86.01;99126.65;226833;1272;22526;-75
2023/08/20 02:38:52;;;;;;;26.00;23.20;;;;;;;19.90;86.13;99124.89;226835;1270;25226;-74
2023/08/20 02:43:55;;;;;;;26.30;23.60;;;;;;;19.86;86.21;99121.77;226812;1273;22545;-74
2023/08/20 02:48:56;;;;;;;26.00;23.60;;;;;;;19.82;86.36;99124.36;226763;1270;22551;-73
2023/08/20 02:53:58;;;;;;;26.30;23.80;;;;;;;19.79;86.42;99124.80;226726;1272;22629;-75
2023/08/20 02:59:00;;;;;;;26.80;24.20;;;;;;;19.77;86.47;99127.02;226854;1272;22544;-74
2023/08/20 03:04:03;;;;;;;24.60;22.20;;;;;;;19.75;86.52;99130.27;226830;1272;25223;-74
2023/08/20 03:09:05;;;;;;;26.40;23.60;;;;;;;19.72;86.65;99138.09;226849;1272;22530;-74
2023/08/20 03:14:07;;;;;;;26.70;24.10;;;;;;;19.69;86.84;99137.31;226767;1273;25223;-75
2023/08/20 03:19:09;;;;;;;28.70;25.30;;;;;;;19.66;86.80;99136.03;226788;1273;22542;-74
2023/08/20 03:24:11;;;;;;;28.30;25.50;;;;;;;19.65;86.98;99132.14;226745;1273;22526;-74
2023/08/20 03:29:13;;;;;;;28.90;26.00;;;;;;;19.63;86.96;99130.98;226849;1273;22561;-74
2023/08/20 03:34:15;;;;;;;29.50;26.50;;;;;;;19.62;86.93;99128.86;226816;1272;25299;-74
2023/08/20 03:39:18;;;;;;;28.90;25.90;;;;;;;19.61;87.00;99128.04;226713;1273;23015;-75
2023/08/20 03:44:20;;;;;;;28.50;25.60;;;;;;;19.61;87.09;99134.56;226701;1272;22553;-74
2023/08/20 03:49:22;;;;;;;30.60;27.60;;;;;;;19.62;87.18;99146.65;226773;1269;23434;-74
2023/08/20 03:54:25;;;;;;;30.30;25.90;;;;;;;19.62;87.21;99144.90;226740;1273;22516;-74
2023/08/20 03:59:27;;;;;;;28.20;25.50;;;;;;;19.62;87.01;99147.52;226729;1272;22537;-75
2023/08/20 04:04:29;;;;;;;28.30;25.50;;;;;;;19.63;86.95;99151.66;226738;1270;23815;-74
2023/08/20 04:09:33;;;;;;;29.10;26.30;;;;;;;19.64;86.93;99157.70;226733;1273;22544;-74
2023/08/20 04:14:35;;;;;;;29.50;26.50;;;;;;;19.68;87.13;99154.61;226791;1270;24857;-74
2023/08/20 04:19:37;;;;;;;30.20;27.20;;;;;;;19.73;87.14;99157.88;226746;1273;22551;-74
2023/08/20 04:24:39;;;;;;;29.60;26.30;;;;;;;19.79;87.11;99158.91;226797;1273;22518;-74
2023/08/20 04:29:41;;;;;;;28.80;25.90;;;;;;;19.85;87.07;99163.75;226816;1273;22531;-74
2023/08/20 04:34:43;;;;;;;28.60;25.70;;;;;;;19.92;87.22;99166.92;226843;1273;22534;-74
2023/08/20 04:39:45;;;;;;;26.60;24.00;;;;;;;20.00;87.03;99168.22;226840;1273;22526;-74
2023/08/20 04:44:48;;;;;;;26.30;23.80;;;;;;;20.11;87.15;99170.57;226824;1272;23733;-74
2023/08/20 04:49:52;;;;;;;27.10;24.30;;;;;;;20.22;87.08;99176.41;226792;1273;22540;-74
2023/08/20 04:54:54;;;;;;;27.10;24.20;;;;;;;20.34;86.74;99177.50;226754;1273;22529;-74
2023/08/20 04:59:56;;;;;;;26.60;24.10;;;;;;;20.44;86.60;99178.29;226795;1273;22539;-74
2023/08/20 05:04:58;;;;;;;24.20;21.80;;;;;;;20.52;86.58;99185.67;226739;1273;22532;-74
2023/08/20 05:10:00;;;;;;;25.90;23.50;;;;;;;20.59;86.17;99183.88;226877;1273;22530;-74
2023/08/20 05:15:04;;;;;;;26.00;23.30;;;;;;;20.70;86.20;99183.93;226708;1273;22551;-74
2023/08/20 05:20:07;;;;;;;25.80;23.10;;;;;;;20.90;86.42;99189.19;226811;1272;25941;-74
2023/08/20 05:25:09;;;;;;;24.00;21.70;;;;;;;21.12;86.07;99193.73;226787;1273;22545;-74
2023/08/20 05:30:12;;;;;;;24.00;21.60;;;;;;;21.34;85.81;99195.31;226734;1273;25299;-74
2023/08/20 05:35:15;;;;;;;24.10;21.60;;;;;;;21.54;85.42;99198.54;226753;1273;25214;-74
2023/08/20 05:40:17;;;;;;;22.50;20.30;;;;;;;21.69;84.92;99201.85;226783;1273;22534;-74
2023/08/20 05:45:19;;;;;;;24.00;21.80;;;;;;;21.82;84.61;99206.21;226792;1273;22547;-74
2023/08/20 05:50:23;;;;;;;23.30;21.10;;;;;;;22.02;84.50;99207.70;226793;1273;24201;-74
2023/08/20 05:55:25;;;;;;;22.40;20.20;;;;;;;22.33;84.31;99210.48;226722;1272;22669;-75
2023/08/20 06:00:29;;;;;;;22.70;20.70;;;;;;;22.63;83.80;99214.17;226751;1269;22606;-74
2023/08/20 06:05:31;;;;;;;23.20;20.90;;;;;;;22.79;83.04;99210.67;226777;1270;22590;-74
2023/08/20 06:10:32;;;;;;;22.30;20.20;;;;;;;22.80;82.19;99213.11;226735;1273;22538;-75
2023/08/20 06:15:35;;;;;;;23.60;21.40;;;;;;;22.83;82.21;99212.17;226855;1273;22534;-75
2023/08/20 06:20:36;;;;;;;23.80;21.50;;;;;;;22.94;82.30;99208.80;226702;1273;25309;-75
2023/08/20 06:25:38;;;;;;;20.90;18.80;;;;;;;23.12;82.32;99206.13;226848;1273;22530;-75
2023/08/20 06:30:40;;;;;;;21.80;19.70;;;;;;;23.28;81.84;99208.19;226762;1273;25193;-75
2023/08/20 06:35:42;;;;;;;22.50;20.50;;;;;;;23.36;81.30;99209.15;226711;1270;22710;-76
2023/08/20 06:40:44;;;;;;;21.20;19.40;;;;;;;23.52;81.28;99207.32;226733;1273;24256;-76
2023/08/20 06:45:46;;;;;;;22.20;20.10;;;;;;;23.70;80.98;99206.83;226751;1273;22575;-76
2023/08/20 06:50:48;;;;;;;18.80;17.10;;;;;;;23.84;80.54;99208.34;226859;1273;25898;-75
2023/08/20 06:55:50;;;;;;;17.30;15.70;;;;;;;24.02;80.18;99214.67;226874;1273;22540;-75
2023/08/20 07:00:52;;;;;;;18.40;16.70;;;;;;;24.21;80.04;99212.53;226763;1270;22541;-75
2023/08/20 07:05:54;;;;;;;20.80;19.10;;;;;;;24.42;79.59;99219.23;226740;1273;22530;-75
2023/08/20 07:10:56;;;;;;;17.50;15.90;;;;;;;24.63;79.41;99224.08;226668;1251;25302;-75
2023/08/20 07:15:59;;;;;;;17.50;15.90;;;;;;;24.85;78.75;99230.69;226746;1273;22627;-74
2023/08/20 07:21:01;;;;;;;18.60;16.90;;;;;;;25.06;78.56;99235.74;226906;1264;22538;-75
2023/08/20 07:26:08;;;;;;;19.30;17.60;;;;;;;25.25;78.11;99234.02;226692;1273;22596;-75
2023/08/20 07:31:10;;;;;;;19.70;17.90;;;;;;;25.42;77.67;99233.75;226775;1273;22560;-75
2023/08/20 07:36:13;;;;;;;18.90;17.30;;;;;;;25.59;77.39;99232.58;226753;1265;22592;-75
2023/08/20 07:41:15;;;;;;;18.10;16.50;;;;;;;25.69;76.46;99228.90;226769;1273;22538;-76
2023/08/20 07:46:17;;;;;;;18.60;17.00;;;;;;;25.85;76.44;99223.59;226747;1273;22547;-75
2023/08/20 07:51:19;;;;;;;17.60;16.20;;;;;;;26.07;76.17;99229.34;226694;1273;22544;-75
2023/08/20 07:56:21;;;;;;;17.20;15.50;;;;;;;26.28;75.86;99230.77;226771;1273;22535;-75
2023/08/20 08:01:23;;;;;;;16.70;15.30;;;;;;;26.47;75.01;99238.70;226823;1270;25434;-75
2023/08/20 08:06:25;;;;;;;17.60;15.90;;;;;;;26.64;74.57;99240.05;226738;1273;22547;-75
2023/08/20 08:11:27;;;;;;;17.00;15.60;;;;;;;26.87;74.41;99244.81;226786;1272;22541;-75
2023/08/20 08:16:29;;;;;;;17.30;15.80;;;;;;;27.10;74.09;99246.88;226799;1273;22543;-75
2023/08/20 08:21:32;;;;;;;16.10;14.80;;;;;;;27.30;73.29;99247.29;226822;1273;22565;-75
2023/08/20 08:26:35;;;;;;;16.00;14.70;;;;;;;27.49;72.81;99244.55;226762;1273;22537;-75
2023/08/20 08:31:37;;;;;;;15.40;14.10;;;;;;;27.70;72.31;99245.27;226841;1273;22569;-74
2023/08/20 08:36:39;;;;;;;14.10;13.00;;;;;;;27.87;70.76;99249.44;226713;1273;22530;-76
2023/08/20 08:41:42;;;;;;;14.60;13.50;;;;;;;27.95;70.02;99251.66;226787;1273;22538;-74
2023/08/20 08:46:48;;;;;;;15.20;13.80;;;;;;;28.09;69.81;99251.38;226877;1273;22924;-74
2023/08/20 08:51:53;;;;;;;14.90;13.60;;;;;;;28.28;69.75;99250.02;226723;1270;22523;-74
2023/08/20 08:56:56;;;;;;;15.60;14.30;;;;;;;28.48;69.16;99251.93;226770;1270;22541;-75
2023/08/20 09:01:58;;;;;;;16.10;14.70;;;;;;;28.69;68.82;99244.60;226692;1273;22613;-75
2023/08/20 09:07:01;;;;;;;15.20;14.00;;;;;;;28.87;68.26;99245.27;226700;1273;24265;-75
2023/08/20 09:12:16;;;;;;;14.80;13.70;;;;;;;28.96;67.77;99244.03;226752;1273;22579;-74
2023/08/20 09:17:21;;;;;;;14.70;13.50;;;;;;;29.16;67.80;99245.38;226817;1273;22520;-74
2023/08/20 09:22:24;;;;;;;17.20;15.70;;;;;;;29.36;66.62;99248.69;226741;1273;22520;-75
2023/08/20 09:27:26;;;;;;;14.20;13.10;;;;;;;29.55;66.43;99248.20;226543;1251;24199;-74
2023/08/20 09:32:28;;;;;;;15.30;14.00;;;;;;;29.73;65.47;99247.83;226604;1273;22530;-75
2023/08/20 09:37:32;;;;;;;13.80;12.60;;;;;;;29.83;64.41;99245.20;226775;1266;22554;-75
2023/08/20 09:42:46;;;;;;;12.30;11.30;;;;;;;29.86;63.99;99247.52;226766;1273;22553;-74
2023/08/20 09:48:09;;;;;;;12.50;11.40;;;;;;;29.99;62.58;99251.60;226602;1273;22577;-75
2023/08/20 09:53:42;;;;;;;12.00;11.00;;;;;;;30.14;62.14;99246.33;226821;1273;22575;-74
2023/08/20 09:58:44;;;;;;;12.30;11.40;;;;;;;30.36;61.68;99238.00;226749;1267;22538;-74
2023/08/20 10:03:55;;;;;;;12.00;11.00;;;;;;;30.58;61.41;99240.18;226772;1270;22530;-75
2023/08/20 10:09:28;;;;;;;12.00;11.10;;;;;;;30.73;60.21;99236.78;226700;1273;22538;-75
2023/08/20 10:15:09;;;;;;;10.90;10.00;;;;;;;30.83;59.23;99240.09;226563;1273;22569;-75
2023/08/20 10:20:18;;;;;;;12.70;11.80;;;;;;;30.90;58.56;99233.38;226804;1273;22538;-74
2023/08/20 10:25:26;;;;;;;11.70;10.70;;;;;;;30.89;58.72;99231.05;226862;1273;22546;-75
2023/08/20 10:30:34;;;;;;;11.70;10.80;;;;;;;30.99;58.55;99233.08;226707;1267;22525;-75
2023/08/20 10:35:49;;;;;;;12.00;10.90;;;;;;;31.25;58.78;99238.58;226710;1273;22548;-75
2023/08/20 10:40:51;;;;;;;11.10;10.20;;;;;;;31.36;57.52;99237.35;226696;1270;22534;-74
2023/08/20 10:46:23;;;;;;;11.00;10.20;;;;;;;31.54;56.97;99233.05;226654;1273;24212;-75
2023/08/20 10:51:39;;;;;;;12.30;10.80;;;;;;;31.60;56.31;99231.00;226845;1273;22541;-74
2023/08/20 10:56:53;;;;;;;11.70;10.70;;;;;;;31.58;55.95;99226.56;226793;1273;24206;-75
2023/08/20 11:01:59;;;;;;;12.10;11.10;;;;;;;31.45;55.82;99227.33;226647;1270;22530;-75
2023/08/20 11:07:01;;;;;;;9.80;9.00;;;;;;;31.34;55.32;99226.59;226807;1273;22542;-75
2023/08/20 11:12:08;;;;;;;9.00;8.30;;;;;;;31.34;53.63;99227.91;226745;1267;22541;-74
2023/08/20 11:17:31;;;;;;;10.40;9.60;;;;;;;31.37;53.32;99219.36;226560;1273;22527;-74
2023/08/20 11:22:44;;;;;;;10.50;9.60;;;;;;;31.47;53.98;99217.98;226764;1273;24287;-74
2023/08/20 11:27:54;;;;;;;10.20;9.40;;;;;;;31.51;52.66;99215.91;226689;1272;22640;-74
2023/08/20 11:33:05;;;;;;;9.80;9.10;;;;;;;31.47;52.65;99214.60;226839;1273;22538;-75
2023/08/20 11:38:12;;;;;;;10.00;9.20;;;;;;;31.51;52.51;99215.04;226711;1273;22549;-74
2023/08/20 11:43:14;;;;;;;11.00;10.20;;;;;;;31.54;52.29;99209.72;226718;1269;24253;-75
2023/08/20 11:48:16;;;;;;;10.20;9.40;;;;;;;31.63;53.19;99201.67;226791;1270;23031;-74
2023/08/20 11:53:23;;;;;;;11.30;10.40;;;;;;;31.80;52.93;99204.48;226718;1273;22550;-74
2023/08/20 11:58:28;;;;;;;11.00;10.20;;;;;;;31.89;52.83;99201.64;226740;1273;22530;-74
2023/08/20 12:03:31;;;;;;;11.10;10.20;;;;;;;32.04;52.74;99197.10;226654;1273;22533;-75
2023/08/20 12:08:37;;;;;;;9.90;9.20;;;;;;;32.26;52.89;99195.58;226722;1270;22533;-75
2023/08/20 12:13:39;;;;;;;11.90;11.10;;;;;;;32.33;50.82;99194.56;226729;1269;22534;-74
2023/08/20 12:18:41;;;;;;;11.30;10.50;;;;;;;32.36;50.72;99195.14;226677;1269;25233;-74
2023/08/20 12:23:48;;;;;;;11.20;10.30;;;;;;;32.30;50.44;99202.56;226758;1266;22534;-74
2023/08/20 12:29:17;;;;;;;11.30;10.30;;;;;;;32.07;50.84;99204.83;226759;1269;22557;-74
2023/08/20 12:34:32;;;;;;;13.10;12.10;;;;;;;32.12;51.16;99200.19;226762;1266;22541;-75
2023/08/20 12:39:38;;;;;;;11.00;10.10;;;;;;;32.23;50.93;99193.15;226775;1269;24955;-75
2023/08/20 12:44:41;;;;;;;10.40;9.50;;;;;;;32.29;50.20;99188.05;226899;1273;22561;-75
2023/08/20 12:49:44;;;;;;;10.50;9.70;;;;;;;32.17;49.63;99193.59;226777;1267;22559;-74
2023/08/20 12:54:46;;;;;;;10.70;9.90;;;;;;;32.13;50.17;99188.67;226734;1270;22545;-75
2023/08/20 12:59:50;;;;;;;10.50;9.70;;;;;;;32.11;49.99;99189.34;226710;1267;22636;-75
2023/08/20 13:05:09;;;;;;;9.00;8.20;;;;;;;32.06;49.86;99183.83;226651;1270;22554;-75
2023/08/20 13:10:12;;;;;;;8.40;7.70;;;;;;;32.06;49.17;99181.46;226732;1270;22527;-74
2023/08/20 13:15:16;;;;;;;8.10;7.40;;;;;;;32.01;48.88;99182.20;226748;1266;23047;-75
2023/08/20 13:20:35;;;;;;;7.60;7.00;;;;;;;31.97;47.77;99180.29;226751;1269;22657;-75
2023/08/20 13:25:37;;;;;;;8.00;7.30;;;;;;;31.98;48.37;99176.39;226755;1272;25217;-75
2023/08/20 13:30:39;;;;;;;7.40;6.90;;;;;;;32.01;48.38;99178.05;226707;1273;25919;-74
2023/08/20 13:35:41;;;;;;;7.80;7.20;;;;;;;31.98;48.39;99177.05;226581;1272;147318;-75
2023/08/20 13:40:44;;;;;;;8.60;8.00;;;;;;;31.96;48.14;99175.20;226737;1272;22545;-74
2023/08/20 13:45:46;;;;;;;8.60;7.90;;;;;;;31.94;48.43;99171.36;226767;1270;23278;-74
2023/08/20 13:50:48;;;;;;;8.70;7.90;;;;;;;31.93;48.63;99167.80;226731;1273;22564;-74
2023/08/20 13:55:56;;;;;;;8.60;8.00;;;;;;;31.94;48.53;99168.95;226745;1273;25386;-75
2023/08/20 14:01:06;;;;;;;8.40;7.70;;;;;;;31.96;48.58;99167.48;226748;1273;22978;-74
2023/08/20 14:06:13;;;;;;;7.90;7.20;;;;;;;31.95;47.90;99169.15;226740;1269;25350;-74
2023/08/20 14:11:17;;;;;;;8.30;7.70;;;;;;;31.90;48.00;99172.63;226827;1272;22542;-73
2023/08/20 14:16:46;;;;;;;8.00;7.40;;;;;;;31.90;48.29;99169.35;226870;1273;22532;-74
2023/08/20 14:21:57;;;;;;;8.20;7.60;;;;;;;31.94;48.16;99168.79;226727;1273;25302;-73
2023/08/20 14:26:59;;;;;;;7.70;7.20;;;;;;;31.93;47.72;99162.52;226770;1273;22540;-74
2023/08/20 14:32:05;;;;;;;7.10;6.60;;;;;;;31.89;47.49;99160.09;226809;1272;22606;-74
2023/08/20 14:37:26;;;;;;;7.60;6.90;;;;;;;31.84;46.75;99161.98;226862;1273;22538;-75
2023/08/20 14:42:29;;;;;;;7.10;6.60;;;;;;;31.81;47.14;99156.48;226926;1272;22541;-75
2023/08/20 14:47:31;;;;;;;7.00;6.50;;;;;;;31.83;47.08;99153.71;226806;1273;22525;-74
2023/08/20 14:52:34;;;;;;;7.40;6.70;;;;;;;31.85;46.93;99154.04;226703;1266;22553;-74
2023/08/20 14:57:44;;;;;;;6.90;6.40;;;;;;;31.83;47.08;99152.00;226793;1269;25264;-74
2023/08/20 15:03:00;;;;;;;7.90;7.30;;;;;;;31.87;47.64;99152.40;226708;1273;25914;-74
2023/08/20 15:08:04;;;;;;;8.10;7.40;;;;;;;31.86;47.57;99151.66;226943;1272;22552;-74
2023/08/20 15:13:06;;;;;;;9.00;7.40;;;;;;;31.80;47.69;99151.17;226956;1272;22531;-74
2023/08/20 15:18:27;;;;;;;7.80;7.20;;;;;;;31.79;48.18;99143.27;226901;1270;23233;-74
2023/08/20 15:23:52;;;;;;;8.70;8.10;;;;;;;31.79;48.03;99144.46;226831;1269;22535;-74
2023/08/20 15:28:55;;;;;;;9.00;8.30;;;;;;;31.67;48.36;99142.95;226991;1259;22557;-75
2023/08/20 15:33:57;;;;;;;8.80;8.10;;;;;;;31.46;48.16;99141.11;226931;1269;23271;-74
2023/08/20 15:39:00;;;;;;;8.40;7.60;;;;;;;31.34;48.51;99140.67;226845;1269;22698;-74
2023/08/20 15:44:12;;;;;;;9.40;8.60;;;;;;;31.33;49.08;99135.63;227006;1272;22521;-74
2023/08/20 15:49:27;;;;;;;9.70;9.00;;;;;;;31.33;49.63;99132.60;226898;1272;24228;-75
2023/08/20 15:54:56;;;;;;;10.20;9.00;;;;;;;31.32;49.74;99129.10;226844;1272;22523;-74
2023/08/20 15:59:58;;;;;;;9.80;8.90;;;;;;;31.25;50.12;99125.73;226372;1256;25433;-75
2023/08/20 16:05:00;;;;;;;9.80;9.10;;;;;;;31.18;50.03;99123.85;226333;1275;22538;-75
2023/08/20 16:10:04;;;;;;;10.30;9.40;;;;;;;31.10;50.15;99121.71;226383;1275;22590;-74
2023/08/20 16:15:07;;;;;;;9.40;8.70;;;;;;;31.03;50.56;99125.92;226301;1275;22576;-75
2023/08/20 16:20:12;;;;;;;9.90;9.00;;;;;;;30.97;50.70;99129.05;226359;1278;22541;-75
2023/08/20 16:25:14;;;;;;;10.40;9.60;;;;;;;30.90;51.10;99131.35;226294;1278;22540;-75
2023/08/20 16:30:16;;;;;;;10.40;9.60;;;;;;;30.81;51.40;99129.73;226377;1276;25253;-74
2023/08/20 16:35:18;;;;;;;9.70;9.00;;;;;;;30.72;51.63;99128.59;226422;1275;22549;-74
2023/08/20 16:40:22;;;;;;;10.40;9.50;;;;;;;30.62;52.00;99133.09;226393;1275;22737;-75
2023/08/20 16:45:24;;;;;;;9.80;9.00;;;;;;;30.51;52.26;99130.23;226344;1278;22563;-75
2023/08/20 16:50:27;;;;;;;10.30;9.20;;;;;;;30.39;52.27;99127.64;226664;1272;22544;-75
2023/08/20 16:55:29;;;;;;;10.30;9.50;;;;;;;30.29;52.71;99127.17;226958;1269;22530;-75
2023/08/20 17:00:31;;;;;;;9.40;8.70;;;;;;;30.16;52.94;99128.52;226915;1262;22540;-75
2023/08/20 17:05:33;;;;;;;10.40;9.50;;;;;;;30.01;53.08;99132.39;226936;1273;24225;-75
2023/08/20 17:10:35;;;;;;;10.10;9.20;;;;;;;29.83;53.26;99130.47;226920;1269;22538;-74
2023/08/20 17:15:49;;;;;;;10.00;9.20;;;;;;;29.66;53.72;99134.81;227017;1271;22524;-75
2023/08/20 17:20:53;;;;;;;10.00;9.20;;;;;;;29.47;54.24;99144.43;226911;1272;22622;-74
2023/08/20 17:25:56;;;;;;;9.80;9.00;;;;;;;29.26;54.67;99145.63;226904;1272;22570;-75
2023/08/20 17:31:02;;;;;;;10.30;9.50;;;;;;;29.05;55.07;99152.33;226970;1272;22558;-75
2023/08/20 17:36:04;;;;;;;10.20;9.20;;;;;;;28.81;55.39;99157.38;226916;1269;22526;-75
2023/08/20 17:41:06;;;;;;;10.30;9.50;;;;;;;28.58;56.00;99160.08;226849;1269;22531;-75
2023/08/20 17:46:13;;;;;;;10.00;9.20;;;;;;;28.35;56.40;99163.31;226915;1263;22571;-75
2023/08/20 17:51:15;;;;;;;11.80;10.80;;;;;;;28.12;57.05;99162.61;226939;1270;23631;-75
2023/08/20 17:56:16;;;;;;;10.50;9.50;;;;;;;27.89;57.29;99157.75;226893;1266;26013;-75
2023/08/20 18:01:18;;;;;;;11.20;10.10;;;;;;;27.66;57.76;99160.71;226906;1270;23610;-74
2023/08/20 18:06:20;;;;;;;11.80;10.80;;;;;;;27.42;58.44;99163.50;226952;1272;22670;-74
2023/08/20 18:11:23;;;;;;;11.60;10.60;;;;;;;27.20;58.87;99157.67;226901;1266;22826;-74
2023/08/20 18:16:24;;;;;;;11.90;10.90;;;;;;;26.99;59.35;99163.52;226990;1270;22529;-74
2023/08/20 18:21:26;;;;;;;12.40;11.00;;;;;;;26.82;59.70;99172.12;226841;1272;22527;-74
2023/08/20 18:26:28;;;;;;;12.20;11.00;;;;;;;26.67;60.16;99178.92;226951;1272;22573;-75
2023/08/20 18:31:30;;;;;;;12.40;11.40;;;;;;;26.50;60.55;99183.91;226857;1272;22542;-77
2023/08/20 18:36:32;;;;;;;12.50;11.40;;;;;;;26.30;61.02;99187.79;226865;1266;24761;-75
2023/08/20 18:41:34;;;;;;;11.90;10.90;;;;;;;26.12;61.60;99200.28;226994;1270;25478;-74
2023/08/20 18:46:36;;;;;;;12.50;11.50;;;;;;;25.96;62.10;99204.16;226909;1256;22532;-73
2023/08/20 18:51:38;;;;;;;12.80;11.70;;;;;;;25.80;62.67;99200.38;226904;1270;25322;-74
2023/08/20 18:56:40;;;;;;;13.50;12.10;;;;;;;25.64;63.14;99207.14;227037;1269;22554;-75
2023/08/20 19:01:42;;;;;;;13.70;12.50;;;;;;;25.49;63.86;99212.58;226940;1272;22534;-76
2023/08/20 19:06:44;;;;;;;14.50;13.00;;;;;;;25.35;64.26;99214.23;226928;1270;25639;-75
2023/08/20 19:11:46;;;;;;;14.40;13.00;;;;;;;25.21;64.99;99212.09;226796;1269;22645;-74
2023/08/20 19:16:47;;;;;;;16.00;14.40;;;;;;;25.08;65.46;99219.36;226958;1272;22559;-75
2023/08/20 19:21:49;;;;;;;16.20;14.60;;;;;;;24.96;65.86;99224.27;226814;1269;25467;-74
2023/08/20 19:26:51;;;;;;;15.10;13.80;;;;;;;24.85;66.47;99227.83;226874;1266;23474;-74
2023/08/20 19:31:53;;;;;;;14.90;13.60;;;;;;;24.75;66.85;99229.61;226951;1264;22640;-74
2023/08/20 19:36:55;;;;;;;16.00;14.50;;;;;;;24.66;67.17;99234.67;226960;1272;22554;-74
2023/08/20 19:41:57;;;;;;;16.20;14.70;;;;;;;24.56;67.72;99243.25;226862;1260;22557;-74
2023/08/20 19:46:59;;;;;;;16.10;14.50;;;;;;;24.46;68.23;99249.55;226882;1270;22537;-74
2023/08/20 19:52:01;;;;;;;15.60;14.20;;;;;;;24.35;68.66;99254.29;226887;1272;22545;-74
2023/08/20 19:57:03;;;;;;;16.30;14.60;;;;;;;24.26;69.06;99257.33;226825;1272;23012;-75
2023/08/20 20:02:05;;;;;;;16.00;14.50;;;;;;;24.17;69.51;99258.47;226903;1272;22533;-75
2023/08/20 20:07:07;;;;;;;16.40;15.00;;;;;;;24.08;69.69;99259.29;226856;1269;22527;-74
2023/08/20 20:12:30;;;;;;;17.00;15.40;;;;;;;23.98;69.99;99257.96;226916;1269;22546;-74
2023/08/20 20:17:32;;;;;;;18.00;16.40;;;;;;;23.89;70.52;99258.41;226872;1270;22581;-74
2023/08/20 20:22:34;;;;;;;17.80;16.20;;;;;;;23.81;71.18;99266.52;226896;1272;22538;-74
2023/08/20 20:27:36;;;;;;;17.40;15.90;;;;;;;23.75;71.66;99263.73;226820;1270;25389;-74
2023/08/20 20:32:39;;;;;;;16.50;14.80;;;;;;;23.67;72.11;99266.98;226943;1272;22565;-75
2023/08/20 20:37:42;;;;;;;17.20;15.50;;;;;;;23.60;72.48;99268.45;226923;1272;24432;-75
2023/08/20 20:42:44;;;;;;;17.40;15.70;;;;;;;23.52;72.83;99274.81;226875;1269;22538;-74
2023/08/20 20:47:45;;;;;;;16.90;15.20;;;;;;;23.45;73.27;99271.40;226888;1269;22618;-74
2023/08/20 20:52:48;;;;;;;17.70;15.90;;;;;;;23.37;73.59;99271.98;226861;1272;22631;-75
2023/08/20 20:57:50;;;;;;;18.50;16.90;;;;;;;23.30;74.22;99272.42;226909;1268;22776;-75
2023/08/20 21:02:52;;;;;;;18.40;16.80;;;;;;;23.24;74.45;99268.02;226778;1272;22526;-75
2023/08/20 21:07:54;;;;;;;19.00;17.50;;;;;;;23.17;74.53;99267.42;226825;1272;22546;-75
2023/08/20 21:12:57;;;;;;;19.00;17.20;;;;;;;23.12;74.60;99262.81;226816;1272;22542;-74
2023/08/20 21:17:59;;;;;;;19.30;17.70;;;;;;;23.05;74.80;99265.70;226887;1270;22564;-74
2023/08/20 21:23:01;;;;;;;18.70;17.00;;;;;;;22.99;75.13;99265.77;226916;1272;24250;-75
2023/08/20 21:28:03;;;;;;;18.90;17.10;;;;;;;22.92;75.42;99273.36;226793;1272;22578;-75
2023/08/20 21:33:05;;;;;;;18.70;17.00;;;;;;;22.84;75.60;99279.59;226965;1272;22546;-75
2023/08/20 21:38:07;;;;;;;19.60;18.00;;;;;;;22.77;75.78;99276.17;226714;1272;22530;-75
2023/08/20 21:43:09;;;;;;;17.80;16.30;;;;;;;22.70;76.33;99279.00;226830;1272;22527;-74
2023/08/20 21:48:11;;;;;;;18.00;16.30;;;;;;;22.63;76.49;99281.23;226831;1272;25395;-74
2023/08/20 21:53:13;;;;;;;19.10;17.50;;;;;;;22.56;76.69;99285.48;226755;1269;24256;-74
2023/08/20 21:58:15;;;;;;;19.20;17.40;;;;;;;22.50;76.76;99295.45;226797;1272;22530;-75
2023/08/20 22:03:17;;;;;;;19.50;17.70;;;;;;;22.46;77.06;99303.16;226866;1272;22541;-75
2023/08/20 22:08:19;;;;;;;19.40;17.50;;;;;;;22.41;77.20;99306.64;226874;1265;22543;-75
2023/08/20 22:13:21;;;;;;;19.00;17.00;;;;;;;22.35;77.35;99304.21;226834;1272;23008;-75
2023/08/20 22:18:24;;;;;;;18.80;17.00;;;;;;;22.28;77.48;99308.70;226877;1272;22536;-75
2023/08/20 22:23:25;;;;;;;17.90;16.20;;;;;;;22.23;77.59;99310.15;226777;1269;23026;-74
2023/08/20 22:28:28;;;;;;;18.30;16.60;;;;;;;22.17;77.80;99311.27;226775;1271;23005;-75
2023/08/20 22:33:30;;;;;;;18.20;16.50;;;;;;;22.11;77.95;99308.55;226843;1272;22616;-74
2023/08/20 22:38:32;;;;;;;18.50;16.70;;;;;;;22.08;78.08;99310.83;226845;1269;22543;-74
2023/08/20 22:43:34;;;;;;;18.30;16.50;;;;;;;22.04;78.09;99313.40;226860;1272;22533;-74
2023/08/20 22:48:36;;;;;;;19.70;17.80;;;;;;;22.00;78.16;99317.38;226803;1272;22541;-74
2023/08/20 22:53:37;;;;;;;19.10;17.30;;;;;;;21.97;78.32;99318.50;226805;1270;25386;-75
2023/08/20 22:58:39;;;;;;;17.80;16.00;;;;;;;21.93;78.29;99310.05;226806;1269;22533;-74
2023/08/20 23:03:41;;;;;;;18.40;16.70;;;;;;;21.88;78.23;99294.81;226832;1272;22603;-74
2023/08/20 23:08:43;;;;;;;18.70;17.00;;;;;;;21.83;78.41;99294.84;226853;1267;22541;-74